createdAt,value
2023-06-27T00:48:05.515Z,71.68
2023-06-27T00:51:22.772Z,71.97
2023-06-27T00:54:54.980Z,71.84
2023-06-27T00:57:53.041Z,72.06
2023-06-27T01:00:34.873Z,72.19
2023-06-27T01:03:38.743Z,72.47
2023-06-27T02:06:00.583Z,72.82
2023-06-27T02:40:25.641Z,78.46
2023-06-27T02:43:57.616Z,78.74
2023-06-27T02:47:39.445Z,78.87
2023-06-27T02:50:35.702Z,78.72
2023-06-27T02:53:29.249Z,78.56
2023-06-27T02:56:53.329Z,78.59
2023-06-27T03:24:30.648Z,78.19
2023-06-27T03:34:11.576Z,77.51
2023-06-27T05:02:54.848Z,69.13
2023-06-27T05:10:31.813Z,67.85
2023-06-27T05:17:14.959Z,67.23
2023-06-27T05:20:37.278Z,66.53
2023-06-27T05:23:24.786Z,66.56
2023-06-27T05:26:03.276Z,65.95
2023-06-27T05:28:38.836Z,65.68
2023-06-27T05:31:45.458Z,64.93
2023-06-27T05:34:29.924Z,64.29
2023-06-27T05:37:34.048Z,64.01
2023-06-27T05:45:01.022Z,63.91
2023-06-27T05:48:09.008Z,63.84
2023-06-27T05:54:40.295Z,61.60
2023-06-27T05:57:26.118Z,62.11
2023-06-27T06:09:37.260Z,62.46
2023-06-27T06:17:05.596Z,60.64
2023-06-27T06:20:47.498Z,59.23
2023-06-27T06:34:17.788Z,56.83
2023-06-27T06:42:05.324Z,56.04
2023-06-27T06:45:38.520Z,55.88
2023-06-27T06:57:50.660Z,54.97
2023-06-27T07:01:33.973Z,54.38
2023-06-27T07:09:35.287Z,54.62
2023-06-27T07:35:59.202Z,50.00
2023-06-27T07:53:24.982Z,50.02
2023-06-27T08:26:20.095Z,49.29
2023-06-27T08:42:04.209Z,49.73
2023-06-27T08:52:53.732Z,48.35
2023-06-27T08:56:11.782Z,47.88
2023-06-27T08:59:25.243Z,47.07
2023-06-27T09:02:02.860Z,47.42
2023-06-27T09:04:51.409Z,47.38
2023-06-27T09:32:57.305Z,46.75
2023-06-27T09:40:30.967Z,47.63
2023-06-27T09:43:07.166Z,46.97
2023-06-27T09:57:51.443Z,47.74
2023-06-27T10:01:02.043Z,47.91
2023-06-27T10:08:00.236Z,47.56
2023-06-27T10:13:59.865Z,48.04
2023-06-27T10:16:54.448Z,48.33
2023-06-27T10:19:39.552Z,47.98
2023-06-27T10:26:59.571Z,48.30
2023-06-27T10:34:03.937Z,46.56
2023-06-27T10:36:59.196Z,46.18
2023-06-27T10:40:09.361Z,45.61
2023-06-27T10:42:37.882Z,45.24
2023-06-27T10:45:05.513Z,45.41
2023-06-27T10:47:39.676Z,45.38
2023-06-27T10:50:11.147Z,44.64
2023-06-27T10:52:40.230Z,44.29
2023-06-27T10:55:20.870Z,44.25
2023-06-27T10:57:52.069Z,43.75
2023-06-27T11:00:30.076Z,43.76
2023-06-27T11:02:58.854Z,43.82
2023-06-27T11:06:00.143Z,43.16
2023-06-27T11:08:35.220Z,43.33
2023-06-27T11:11:06.918Z,43.86
2023-06-27T11:13:41.306Z,43.67
2023-06-27T11:16:14.488Z,42.68
2023-06-27T11:18:42.659Z,42.75
2023-06-27T11:21:14.386Z,42.83
2023-06-27T11:23:47.456Z,42.91
2023-06-27T11:26:17.068Z,43.54
2023-06-27T11:28:45.975Z,44.25
2023-06-27T11:31:13.837Z,44.67
2023-06-27T11:38:32.390Z,44.09
2023-06-27T11:40:59.436Z,44.58
2023-06-27T11:43:28.848Z,44.55
2023-06-27T11:46:14.874Z,44.12
2023-06-27T11:53:11.909Z,44.15
2023-06-27T11:56:40.731Z,44.32
2023-06-27T11:59:14.781Z,44.17
2023-06-27T12:01:46.676Z,43.45
2023-06-27T12:04:14.748Z,42.94
2023-06-27T12:06:42.952Z,42.90
2023-06-27T12:09:29.630Z,43.25
2023-06-27T12:12:04.970Z,42.65
2023-06-27T12:14:33.008Z,42.64
2023-06-27T12:17:06.691Z,43.02
2023-06-27T12:19:35.596Z,43.30
2023-06-27T12:22:04.043Z,42.66
2023-06-27T12:24:32.069Z,42.40
2023-06-27T12:27:01.910Z,42.47
2023-06-27T12:29:39.760Z,42.42
2023-06-27T12:32:43.374Z,42.77
2023-06-27T12:36:16.841Z,42.21
2023-06-27T12:44:54.537Z,41.77
2023-06-27T12:47:32.779Z,41.90
2023-06-27T12:50:23.725Z,42.23
2023-06-27T12:53:06.306Z,42.26
2023-06-27T12:55:50.234Z,42.46
2023-06-27T12:59:46.363Z,42.33
2023-06-27T13:05:54.634Z,41.21
2023-06-27T13:09:22.343Z,41.49
2023-06-27T13:12:01.544Z,41.26
2023-06-27T13:15:01.320Z,41.73
2023-06-27T13:22:36.187Z,41.22
2023-06-27T13:30:17.853Z,41.92
2023-06-27T13:32:57.990Z,42.17
2023-06-27T13:35:40.199Z,42.80
2023-06-27T13:38:43.381Z,43.07
2023-06-27T13:41:32.458Z,43.29
2023-06-27T13:44:29.331Z,43.56
2023-06-27T13:47:24.797Z,44.09
2023-06-27T13:51:05.757Z,44.07
2023-06-27T13:54:44.029Z,43.26
2023-06-27T13:58:05.860Z,42.34
2023-06-27T14:06:14.728Z,41.70
2023-06-27T14:09:03.884Z,41.11
2023-06-27T14:16:34.070Z,41.95
2023-06-27T14:19:13.413Z,41.96
2023-06-27T14:25:48.629Z,42.49
2023-06-27T14:32:51.307Z,43.11
2023-06-27T14:46:00.382Z,44.00
2023-06-27T14:48:59.592Z,43.45
2023-06-27T14:52:03.240Z,42.77
2023-06-27T14:55:32.626Z,42.81
2023-06-27T14:58:13.476Z,42.71
2023-06-27T15:01:07.221Z,42.96
2023-06-27T15:13:45.289Z,43.28
2023-06-27T15:17:19.787Z,43.18
2023-06-27T15:31:38.384Z,43.96
2023-06-27T15:48:47.351Z,44.80
2023-06-27T15:53:01.959Z,45.12
2023-06-27T16:03:32.533Z,45.16
2023-06-27T16:06:42.175Z,45.39
2023-06-27T16:09:44.617Z,45.79
2023-06-27T16:18:02.626Z,46.35
2023-06-27T16:22:22.768Z,46.61
2023-06-27T16:25:37.073Z,46.20
2023-06-27T16:28:47.655Z,45.96
2023-06-27T16:44:50.310Z,45.20
2023-06-27T16:48:04.717Z,45.02
2023-06-27T16:51:17.152Z,44.98
2023-06-27T16:54:01.822Z,45.09
2023-06-27T16:56:44.131Z,44.97
2023-06-27T17:05:32.402Z,45.32
2023-06-27T17:09:02.109Z,45.62
2023-06-27T17:11:47.796Z,45.82
2023-06-27T17:14:37.263Z,45.59
2023-06-27T17:17:27.369Z,45.63
2023-06-27T17:30:38.187Z,47.01
2023-06-27T17:33:44.143Z,47.36
2023-06-27T17:50:25.427Z,48.85
2023-06-27T17:53:23.390Z,49.01
2023-06-27T18:05:52.397Z,49.56
2023-06-27T18:23:17.698Z,50.54
2023-06-27T18:35:02.536Z,52.06
2023-06-27T19:23:35.871Z,51.57
2023-06-27T19:46:01.478Z,53.79
2023-06-27T19:49:12.097Z,53.99
2023-06-27T19:56:12.254Z,54.38
2023-06-27T19:59:38.544Z,54.78
2023-06-27T20:11:21.393Z,55.55
2023-06-27T20:46:55.770Z,56.19
2023-06-27T20:54:17.170Z,56.35
2023-06-27T20:58:12.532Z,56.58
2023-06-27T21:01:28.599Z,56.70
2023-06-27T21:04:25.310Z,56.85
2023-06-27T21:07:00.222Z,57.06
2023-06-27T21:14:37.273Z,57.17
2023-06-27T21:17:37.112Z,57.68
2023-06-27T21:20:19.858Z,58.07
2023-06-27T21:23:19.778Z,58.59
2023-06-27T21:26:29.245Z,59.08
2023-06-27T21:32:54.923Z,59.88
2023-06-27T21:35:48.183Z,60.60
2023-06-27T21:38:40.466Z,61.09
2023-06-27T21:41:16.162Z,61.52
2023-06-27T21:44:19.011Z,61.76
2023-06-27T21:46:56.039Z,61.96
2023-06-27T21:49:33.073Z,62.18
2023-06-27T21:55:35.177Z,62.75
2023-06-27T21:59:00.556Z,62.97
2023-06-27T22:01:47.637Z,63.35
2023-06-27T22:04:28.423Z,63.86
2023-06-27T22:07:28.301Z,64.28
2023-06-27T22:10:32.404Z,64.70
2023-06-27T22:13:06.626Z,65.15
2023-06-27T22:15:50.644Z,65.70
2023-06-27T22:18:34.050Z,66.16
2023-06-27T22:21:42.470Z,66.39
2023-06-27T22:24:17.813Z,66.48
2023-06-27T22:31:23.496Z,66.68
2023-06-27T22:38:11.653Z,66.79
2023-06-27T22:45:58.020Z,67.04
2023-06-27T22:48:44.927Z,67.53
2023-06-27T22:51:52.714Z,67.73
2023-06-27T22:57:35.305Z,68.60
2023-06-27T23:00:23.988Z,69.10
2023-06-27T23:03:22.943Z,69.34
2023-06-27T23:06:41.707Z,69.59
2023-06-27T23:09:21.111Z,70.17
2023-06-27T23:12:12.152Z,70.65
2023-06-27T23:18:01.357Z,71.16
2023-06-27T23:21:35.518Z,71.26
2023-06-27T23:24:31.950Z,71.59
2023-06-27T23:27:34.858Z,71.90
2023-06-27T23:30:43.490Z,72.01
2023-06-27T23:33:25.221Z,72.13
2023-06-27T23:35:59.508Z,72.30
2023-06-27T23:45:08.631Z,72.41
2023-06-27T23:48:12.830Z,72.30
2023-06-27T23:50:45.209Z,72.44
